sensor_id;sensor_type;location;lat;lon;timestamp;P1;durP1;ratioP1;P2;durP2;ratioP2
45730;SDS011;31440;48.584;13.460;2022-09-17T00:01:48;11.02;;;6.75;;
45730;SDS011;31440;48.584;13.460;2022-09-17T00:04:13;9.15;;;6.70;;
45730;SDS011;31440;48.584;13.460;2022-09-17T00:06:39;9.45;;;6.72;;
45730;SDS011;31440;48.584;13.460;2022-09-17T00:09:05;9.98;;;6.80;;
45730;SDS011;31440;48.584;13.460;2022-09-17T00:11:32;8.52;;;6.70;;
45730;SDS011;31440;48.584;13.460;2022-09-17T00:14:00;9.27;;;6.63;;
45730;SDS011;31440;48.584;13.460;2022-09-17T00:16:35;11.15;;;7.63;;
45730;SDS011;31440;48.584;13.460;2022-09-17T00:19:03;11.55;;;7.53;;
45730;SDS011;31440;48.584;13.460;2022-09-17T00:21:30;13.38;;;7.22;;
45730;SDS011;31440;48.584;13.460;2022-09-17T00:23:59;9.25;;;7.50;;
45730;SDS011;31440;48.584;13.460;2022-09-17T00:26:27;7.55;;;5.97;;
45730;SDS011;31440;48.584;13.460;2022-09-17T00:28:54;8.48;;;6.88;;
45730;SDS011;31440;48.584;13.460;2022-09-17T00:31:21;13.88;;;6.55;;
45730;SDS011;31440;48.584;13.460;2022-09-17T00:33:47;11.15;;;7.63;;
45730;SDS011;31440;48.584;13.460;2022-09-17T00:36:13;12.65;;;8.18;;
45730;SDS011;31440;48.584;13.460;2022-09-17T00:38:39;10.85;;;7.57;;
45730;SDS011;31440;48.584;13.460;2022-09-17T00:41:05;9.70;;;6.93;;
45730;SDS011;31440;48.584;13.460;2022-09-17T00:46:03;12.38;;;7.82;;
45730;SDS011;31440;48.584;13.460;2022-09-17T00:48:34;8.13;;;7.28;;
45730;SDS011;31440;48.584;13.460;2022-09-17T00:50:59;10.55;;;6.65;;
45730;SDS011;31440;48.584;13.460;2022-09-17T00:53:25;10.25;;;6.85;;
45730;SDS011;31440;48.584;13.460;2022-09-17T00:58:43;14.23;;;7.82;;
45730;SDS011;31440;48.584;13.460;2022-09-17T01:01:09;10.02;;;7.40;;
45730;SDS011;31440;48.584;13.460;2022-09-17T01:03:35;11.57;;;7.75;;
45730;SDS011;31440;48.584;13.460;2022-09-17T01:12:23;12.07;;;8.10;;
45730;SDS011;31440;48.584;13.460;2022-09-17T01:14:37;12.20;;;7.47;;
45730;SDS011;31440;48.584;13.460;2022-09-17T01:22:32;9.73;;;6.95;;
45730;SDS011;31440;48.584;13.460;2022-09-17T01:28:13;8.55;;;6.30;;
45730;SDS011;31440;48.584;13.460;2022-09-17T01:34:17;8.55;;;6.13;;
45730;SDS011;31440;48.584;13.460;2022-09-17T01:39:37;12.60;;;5.93;;
45730;SDS011;31440;48.584;13.460;2022-09-17T01:42:23;6.55;;;5.38;;
45730;SDS011;31440;48.584;13.460;2022-09-17T01:47:41;7.32;;;5.45;;
45730;SDS011;31440;48.584;13.460;2022-09-17T01:50:19;6.82;;;4.93;;
45730;SDS011;31440;48.584;13.460;2022-09-17T01:52:49;7.07;;;5.28;;
45730;SDS011;31440;48.584;13.460;2022-09-17T01:55:17;6.75;;;4.65;;
45730;SDS011;31440;48.584;13.460;2022-09-17T01:57:52;4.72;;;3.95;;
45730;SDS011;31440;48.584;13.460;2022-09-17T02:00:20;5.65;;;4.30;;
45730;SDS011;31440;48.584;13.460;2022-09-17T02:05:33;8.03;;;3.20;;
45730;SDS011;31440;48.584;13.460;2022-09-17T02:08:05;5.78;;;3.38;;
45730;SDS011;31440;48.584;13.460;2022-09-17T02:10:36;2.95;;;2.65;;
45730;SDS011;31440;48.584;13.460;2022-09-17T02:13:09;4.20;;;2.60;;
45730;SDS011;31440;48.584;13.460;2022-09-17T02:15:40;3.67;;;2.50;;
45730;SDS011;31440;48.584;13.460;2022-09-17T02:18:26;5.10;;;2.38;;
45730;SDS011;31440;48.584;13.460;2022-09-17T02:21:02;4.05;;;2.55;;
45730;SDS011;31440;48.584;13.460;2022-09-17T02:23:38;3.60;;;2.40;;
45730;SDS011;31440;48.584;13.460;2022-09-17T02:26:13;3.45;;;2.53;;
45730;SDS011;31440;48.584;13.460;2022-09-17T02:28:48;4.68;;;2.38;;
45730;SDS011;31440;48.584;13.460;2022-09-17T02:31:17;5.25;;;2.72;;
45730;SDS011;31440;48.584;13.460;2022-09-17T02:33:44;4.82;;;2.90;;
45730;SDS011;31440;48.584;13.460;2022-09-17T02:36:12;6.35;;;2.80;;
45730;SDS011;31440;48.584;13.460;2022-09-17T02:38:40;2.72;;;2.35;;
45730;SDS011;31440;48.584;13.460;2022-09-17T02:41:12;3.30;;;2.72;;
45730;SDS011;31440;48.584;13.460;2022-09-17T02:44:03;6.45;;;2.47;;
45730;SDS011;31440;48.584;13.460;2022-09-17T02:49:23;6.53;;;2.92;;
45730;SDS011;31440;48.584;13.460;2022-09-17T02:52:14;4.60;;;3.25;;
45730;SDS011;31440;48.584;13.460;2022-09-17T02:55:20;3.08;;;2.20;;
45730;SDS011;31440;48.584;13.460;2022-09-17T02:58:04;4.10;;;2.28;;
45730;SDS011;31440;48.584;13.460;2022-09-17T03:00:34;3.10;;;2.70;;
45730;SDS011;31440;48.584;13.460;2022-09-17T03:03:11;4.97;;;2.40;;
45730;SDS011;31440;48.584;13.460;2022-09-17T03:05:45;4.18;;;2.42;;
45730;SDS011;31440;48.584;13.460;2022-09-17T03:08:12;4.45;;;2.30;;
45730;SDS011;31440;48.584;13.460;2022-09-17T03:10:38;2.10;;;1.95;;
45730;SDS011;31440;48.584;13.460;2022-09-17T03:13:04;3.13;;;2.22;;
45730;SDS011;31440;48.584;13.460;2022-09-17T03:15:30;2.70;;;2.20;;
45730;SDS011;31440;48.584;13.460;2022-09-17T03:17:56;3.67;;;2.60;;
45730;SDS011;31440;48.584;13.460;2022-09-17T03:20:21;4.47;;;2.70;;
45730;SDS011;31440;48.584;13.460;2022-09-17T03:22:47;3.08;;;2.70;;
45730;SDS011;31440;48.584;13.460;2022-09-17T03:25:12;3.80;;;2.28;;
45730;SDS011;31440;48.584;13.460;2022-09-17T03:27:38;4.47;;;2.45;;
45730;SDS011;31440;48.584;13.460;2022-09-17T03:30:04;4.07;;;2.50;;
45730;SDS011;31440;48.584;13.460;2022-09-17T03:32:31;5.55;;;2.40;;
45730;SDS011;31440;48.584;13.460;2022-09-17T03:34:57;2.67;;;1.98;;
45730;SDS011;31440;48.584;13.460;2022-09-17T03:37:22;5.07;;;2.78;;
45730;SDS011;31440;48.584;13.460;2022-09-17T03:39:48;4.47;;;2.70;;
45730;SDS011;31440;48.584;13.460;2022-09-17T03:42:13;3.28;;;3.03;;
45730;SDS011;31440;48.584;13.460;2022-09-17T03:44:39;6.45;;;2.72;;
45730;SDS011;31440;48.584;13.460;2022-09-17T03:47:05;3.20;;;2.63;;
45730;SDS011;31440;48.584;13.460;2022-09-17T03:49:31;4.65;;;2.63;;
45730;SDS011;31440;48.584;13.460;2022-09-17T03:51:56;5.18;;;3.03;;
45730;SDS011;31440;48.584;13.460;2022-09-17T03:54:22;5.80;;;2.75;;
45730;SDS011;31440;48.584;13.460;2022-09-17T03:56:47;4.35;;;2.50;;
45730;SDS011;31440;48.584;13.460;2022-09-17T03:59:13;3.42;;;2.58;;
45730;SDS011;31440;48.584;13.460;2022-09-17T04:01:38;3.22;;;2.58;;
45730;SDS011;31440;48.584;13.460;2022-09-17T04:04:04;4.53;;;2.78;;
45730;SDS011;31440;48.584;13.460;2022-09-17T04:06:30;2.88;;;2.55;;
45730;SDS011;31440;48.584;13.460;2022-09-17T04:08:55;2.65;;;2.45;;
45730;SDS011;31440;48.584;13.460;2022-09-17T04:11:21;5.53;;;2.67;;
45730;SDS011;31440;48.584;13.460;2022-09-17T04:13:47;5.38;;;3.03;;
45730;SDS011;31440;48.584;13.460;2022-09-17T04:16:13;4.43;;;2.72;;
45730;SDS011;31440;48.584;13.460;2022-09-17T04:18:38;3.47;;;2.72;;
45730;SDS011;31440;48.584;13.460;2022-09-17T04:21:04;2.75;;;2.28;;
45730;SDS011;31440;48.584;13.460;2022-09-17T04:23:30;3.40;;;2.55;;
45730;SDS011;31440;48.584;13.460;2022-09-17T04:25:56;3.53;;;2.40;;
45730;SDS011;31440;48.584;13.460;2022-09-17T04:28:21;4.85;;;2.55;;
45730;SDS011;31440;48.584;13.460;2022-09-17T04:30:47;6.70;;;2.67;;
45730;SDS011;31440;48.584;13.460;2022-09-17T04:33:13;2.63;;;2.42;;
45730;SDS011;31440;48.584;13.460;2022-09-17T04:35:38;3.17;;;2.80;;
45730;SDS011;31440;48.584;13.460;2022-09-17T04:38:04;4.40;;;2.53;;
45730;SDS011;31440;48.584;13.460;2022-09-17T04:40:29;6.00;;;2.47;;
45730;SDS011;31440;48.584;13.460;2022-09-17T04:42:55;2.58;;;2.33;;
45730;SDS011;31440;48.584;13.460;2022-09-17T04:45:27;4.53;;;2.72;;
45730;SDS011;31440;48.584;13.460;2022-09-17T04:47:53;5.55;;;2.28;;
45730;SDS011;31440;48.584;13.460;2022-09-17T04:50:19;5.75;;;2.75;;
45730;SDS011;31440;48.584;13.460;2022-09-17T04:52:46;4.55;;;2.67;;
45730;SDS011;31440;48.584;13.460;2022-09-17T04:55:12;7.10;;;2.63;;
45730;SDS011;31440;48.584;13.460;2022-09-17T04:57:38;3.88;;;2.42;;
45730;SDS011;31440;48.584;13.460;2022-09-17T05:00:10;2.70;;;2.50;;
45730;SDS011;31440;48.584;13.460;2022-09-17T05:02:36;4.65;;;2.90;;
45730;SDS011;31440;48.584;13.460;2022-09-17T05:05:02;3.78;;;2.42;;
45730;SDS011;31440;48.584;13.460;2022-09-17T05:07:28;2.88;;;2.33;;
45730;SDS011;31440;48.584;13.460;2022-09-17T05:09:53;6.13;;;2.67;;
45730;SDS011;31440;48.584;13.460;2022-09-17T05:12:19;4.07;;;2.33;;
45730;SDS011;31440;48.584;13.460;2022-09-17T05:14:44;6.57;;;2.50;;
45730;SDS011;31440;48.584;13.460;2022-09-17T05:17:10;3.50;;;2.50;;
45730;SDS011;31440;48.584;13.460;2022-09-17T05:19:35;6.15;;;2.40;;
45730;SDS011;31440;48.584;13.460;2022-09-17T05:22:01;2.90;;;2.22;;
45730;SDS011;31440;48.584;13.460;2022-09-17T05:24:27;4.03;;;2.13;;
45730;SDS011;31440;48.584;13.460;2022-09-17T05:26:52;2.78;;;2.50;;
45730;SDS011;31440;48.584;13.460;2022-09-17T05:29:18;4.53;;;2.03;;
45730;SDS011;31440;48.584;13.460;2022-09-17T05:31:43;4.07;;;1.70;;
45730;SDS011;31440;48.584;13.460;2022-09-17T05:34:09;4.65;;;2.10;;
45730;SDS011;31440;48.584;13.460;2022-09-17T05:36:35;4.63;;;2.10;;
45730;SDS011;31440;48.584;13.460;2022-09-17T05:39:00;4.80;;;2.83;;
45730;SDS011;31440;48.584;13.460;2022-09-17T05:41:26;2.35;;;1.80;;
45730;SDS011;31440;48.584;13.460;2022-09-17T05:43:51;2.70;;;1.83;;
45730;SDS011;31440;48.584;13.460;2022-09-17T05:46:17;8.23;;;2.97;;
45730;SDS011;31440;48.584;13.460;2022-09-17T05:48:42;5.38;;;1.90;;
45730;SDS011;31440;48.584;13.460;2022-09-17T05:51:08;3.10;;;1.92;;
45730;SDS011;31440;48.584;13.460;2022-09-17T05:53:34;4.93;;;2.40;;
45730;SDS011;31440;48.584;13.460;2022-09-17T05:55:59;6.72;;;2.10;;
45730;SDS011;31440;48.584;13.460;2022-09-17T05:58:25;2.25;;;1.55;;
45730;SDS011;31440;48.584;13.460;2022-09-17T06:00:51;2.65;;;1.75;;
45730;SDS011;31440;48.584;13.460;2022-09-17T06:03:17;7.88;;;1.67;;
45730;SDS011;31440;48.584;13.460;2022-09-17T06:05:55;4.38;;;2.13;;
45730;SDS011;31440;48.584;13.460;2022-09-17T06:08:23;5.57;;;1.90;;
45730;SDS011;31440;48.584;13.460;2022-09-17T06:10:49;8.02;;;1.92;;
45730;SDS011;31440;48.584;13.460;2022-09-17T06:13:16;5.57;;;2.30;;
45730;SDS011;31440;48.584;13.460;2022-09-17T06:15:42;2.63;;;1.98;;
45730;SDS011;31440;48.584;13.460;2022-09-17T06:18:13;4.07;;;2.03;;
45730;SDS011;31440;48.584;13.460;2022-09-17T06:20:38;2.33;;;1.85;;
45730;SDS011;31440;48.584;13.460;2022-09-17T06:23:04;3.70;;;1.75;;
45730;SDS011;31440;48.584;13.460;2022-09-17T06:25:29;3.80;;;1.88;;
45730;SDS011;31440;48.584;13.460;2022-09-17T06:27:55;3.47;;;1.90;;
45730;SDS011;31440;48.584;13.460;2022-09-17T06:30:21;3.30;;;1.92;;
45730;SDS011;31440;48.584;13.460;2022-09-17T06:32:46;2.45;;;1.98;;
45730;SDS011;31440;48.584;13.460;2022-09-17T06:35:12;5.32;;;2.65;;
45730;SDS011;31440;48.584;13.460;2022-09-17T06:37:38;6.55;;;2.00;;
45730;SDS011;31440;48.584;13.460;2022-09-17T06:40:05;4.57;;;2.15;;
45730;SDS011;31440;48.584;13.460;2022-09-17T06:42:31;6.88;;;2.13;;
45730;SDS011;31440;48.584;13.460;2022-09-17T06:44:57;3.50;;;1.70;;
45730;SDS011;31440;48.584;13.460;2022-09-17T06:47:23;3.60;;;1.75;;
45730;SDS011;31440;48.584;13.460;2022-09-17T06:49:49;6.60;;;2.22;;
45730;SDS011;31440;48.584;13.460;2022-09-17T06:52:14;4.32;;;2.10;;
45730;SDS011;31440;48.584;13.460;2022-09-17T06:54:40;5.95;;;2.05;;
45730;SDS011;31440;48.584;13.460;2022-09-17T06:57:05;6.75;;;1.92;;
45730;SDS011;31440;48.584;13.460;2022-09-17T06:59:31;3.78;;;1.92;;
45730;SDS011;31440;48.584;13.460;2022-09-17T07:01:56;5.70;;;2.03;;
45730;SDS011;31440;48.584;13.460;2022-09-17T07:04:22;4.15;;;2.15;;
45730;SDS011;31440;48.584;13.460;2022-09-17T07:06:48;1.77;;;1.58;;
45730;SDS011;31440;48.584;13.460;2022-09-17T07:09:13;5.25;;;1.60;;
45730;SDS011;31440;48.584;13.460;2022-09-17T07:11:39;3.83;;;2.05;;
45730;SDS011;31440;48.584;13.460;2022-09-17T07:14:05;6.93;;;2.65;;
45730;SDS011;31440;48.584;13.460;2022-09-17T07:16:31;5.80;;;2.50;;
45730;SDS011;31440;48.584;13.460;2022-09-17T07:18:59;4.07;;;2.65;;
45730;SDS011;31440;48.584;13.460;2022-09-17T07:21:24;4.60;;;2.15;;
45730;SDS011;31440;48.584;13.460;2022-09-17T07:23:50;8.32;;;2.25;;
45730;SDS011;31440;48.584;13.460;2022-09-17T07:26:16;3.67;;;2.40;;
45730;SDS011;31440;48.584;13.460;2022-09-17T07:28:41;3.38;;;2.20;;
45730;SDS011;31440;48.584;13.460;2022-09-17T07:31:08;4.90;;;2.10;;
45730;SDS011;31440;48.584;13.460;2022-09-17T07:33:35;5.30;;;2.47;;
45730;SDS011;31440;48.584;13.460;2022-09-17T07:36:03;3.97;;;2.70;;
45730;SDS011;31440;48.584;13.460;2022-09-17T07:38:30;3.30;;;2.10;;
45730;SDS011;31440;48.584;13.460;2022-09-17T07:41:02;3.00;;;2.42;;
45730;SDS011;31440;48.584;13.460;2022-09-17T07:43:35;3.92;;;2.50;;
45730;SDS011;31440;48.584;13.460;2022-09-17T07:46:02;4.82;;;2.42;;
45730;SDS011;31440;48.584;13.460;2022-09-17T07:48:29;6.28;;;3.08;;
45730;SDS011;31440;48.584;13.460;2022-09-17T07:50:55;4.90;;;2.83;;
45730;SDS011;31440;48.584;13.460;2022-09-17T07:53:21;3.63;;;2.10;;
45730;SDS011;31440;48.584;13.460;2022-09-17T07:55:51;5.88;;;2.45;;
45730;SDS011;31440;48.584;13.460;2022-09-17T07:58:17;2.63;;;1.90;;
45730;SDS011;31440;48.584;13.460;2022-09-17T08:00:42;3.72;;;1.80;;
45730;SDS011;31440;48.584;13.460;2022-09-17T08:03:08;3.90;;;2.00;;
45730;SDS011;31440;48.584;13.460;2022-09-17T08:05:34;5.57;;;2.50;;
45730;SDS011;31440;48.584;13.460;2022-09-17T08:07:59;4.20;;;2.60;;
45730;SDS011;31440;48.584;13.460;2022-09-17T08:10:25;5.53;;;2.65;;
45730;SDS011;31440;48.584;13.460;2022-09-17T08:12:54;5.90;;;2.53;;
45730;SDS011;31440;48.584;13.460;2022-09-17T08:15:21;4.90;;;1.98;;
45730;SDS011;31440;48.584;13.460;2022-09-17T08:17:48;3.17;;;1.55;;
45730;SDS011;31440;48.584;13.460;2022-09-17T08:20:15;6.40;;;1.63;;
45730;SDS011;31440;48.584;13.460;2022-09-17T08:22:41;3.42;;;1.70;;
45730;SDS011;31440;48.584;13.460;2022-09-17T08:25:07;3.38;;;1.60;;
45730;SDS011;31440;48.584;13.460;2022-09-17T08:27:34;7.03;;;1.75;;
45730;SDS011;31440;48.584;13.460;2022-09-17T08:30:00;2.80;;;1.60;;
45730;SDS011;31440;48.584;13.460;2022-09-17T08:32:27;6.82;;;2.55;;
45730;SDS011;31440;48.584;13.460;2022-09-17T08:34:53;3.08;;;1.60;;
45730;SDS011;31440;48.584;13.460;2022-09-17T08:37:19;4.82;;;2.00;;
45730;SDS011;31440;48.584;13.460;2022-09-17T08:39:45;2.75;;;1.52;;
45730;SDS011;31440;48.584;13.460;2022-09-17T08:42:11;3.22;;;1.42;;
45730;SDS011;31440;48.584;13.460;2022-09-17T08:44:45;3.60;;;1.60;;
45730;SDS011;31440;48.584;13.460;2022-09-17T08:49:56;3.90;;;1.48;;
45730;SDS011;31440;48.584;13.460;2022-09-17T08:55:18;2.60;;;1.40;;
45730;SDS011;31440;48.584;13.460;2022-09-17T09:00:38;2.45;;;1.80;;
45730;SDS011;31440;48.584;13.460;2022-09-17T09:03:29;1.98;;;1.40;;
45730;SDS011;31440;48.584;13.460;2022-09-17T09:06:01;3.92;;;2.13;;
45730;SDS011;31440;48.584;13.460;2022-09-17T09:08:34;4.75;;;1.55;;
45730;SDS011;31440;48.584;13.460;2022-09-17T09:11:04;3.85;;;1.35;;
45730;SDS011;31440;48.584;13.460;2022-09-17T09:13:39;3.42;;;1.95;;
45730;SDS011;31440;48.584;13.460;2022-09-17T09:18:40;4.77;;;2.23;;
45730;SDS011;31440;48.584;13.460;2022-09-17T09:24:00;4.28;;;1.25;;
45730;SDS011;31440;48.584;13.460;2022-09-17T09:34:35;1.33;;;1.10;;
45730;SDS011;31440;48.584;13.460;2022-09-17T09:37:10;4.05;;;1.00;;
45730;SDS011;31440;48.584;13.460;2022-09-17T09:39:52;4.50;;;1.70;;
45730;SDS011;31440;48.584;13.460;2022-09-17T09:44:57;3.65;;;1.13;;
45730;SDS011;31440;48.584;13.460;2022-09-17T09:50:22;3.28;;;1.00;;
45730;SDS011;31440;48.584;13.460;2022-09-17T09:58:04;5.13;;;1.48;;
45730;SDS011;31440;48.584;13.460;2022-09-17T10:00:42;2.17;;;1.13;;
45730;SDS011;31440;48.584;13.460;2022-09-17T10:05:39;1.70;;;1.02;;
45730;SDS011;31440;48.584;13.460;2022-09-17T10:08:16;1.08;;;0.85;;
45730;SDS011;31440;48.584;13.460;2022-09-17T10:10:54;2.42;;;0.70;;
45730;SDS011;31440;48.584;13.460;2022-09-17T10:13:26;2.15;;;0.80;;
45730;SDS011;31440;48.584;13.460;2022-09-17T10:15:53;1.35;;;0.77;;
45730;SDS011;31440;48.584;13.460;2022-09-17T10:18:20;1.23;;;0.90;;
45730;SDS011;31440;48.584;13.460;2022-09-17T10:20:48;2.35;;;0.80;;
45730;SDS011;31440;48.584;13.460;2022-09-17T10:23:13;1.45;;;0.90;;
45730;SDS011;31440;48.584;13.460;2022-09-17T10:25:41;0.88;;;0.88;;
45730;SDS011;31440;48.584;13.460;2022-09-17T10:28:22;1.27;;;0.68;;
45730;SDS011;31440;48.584;13.460;2022-09-17T10:31:04;1.15;;;0.70;;
45730;SDS011;31440;48.584;13.460;2022-09-17T10:33:37;0.73;;;0.70;;
45730;SDS011;31440;48.584;13.460;2022-09-17T10:38:40;0.65;;;0.65;;
45730;SDS011;31440;48.584;13.460;2022-09-17T10:43:33;0.45;;;0.45;;
45730;SDS011;31440;48.584;13.460;2022-09-17T10:45:59;0.60;;;0.50;;
45730;SDS011;31440;48.584;13.460;2022-09-17T10:48:25;0.68;;;0.60;;
45730;SDS011;31440;48.584;13.460;2022-09-17T10:50:55;0.73;;;0.50;;
45730;SDS011;31440;48.584;13.460;2022-09-17T10:53:21;0.60;;;0.50;;
45730;SDS011;31440;48.584;13.460;2022-09-17T10:55:57;3.08;;;0.50;;
45730;SDS011;31440;48.584;13.460;2022-09-17T11:04:25;2.05;;;0.47;;
45730;SDS011;31440;48.584;13.460;2022-09-17T11:07:10;2.88;;;0.40;;
45730;SDS011;31440;48.584;13.460;2022-09-17T11:10:06;1.20;;;0.50;;
45730;SDS011;31440;48.584;13.460;2022-09-17T11:12:59;0.77;;;0.60;;
45730;SDS011;31440;48.584;13.460;2022-09-17T11:21:34;2.13;;;0.60;;
45730;SDS011;31440;48.584;13.460;2022-09-17T11:35:16;0.50;;;0.50;;
45730;SDS011;31440;48.584;13.460;2022-09-17T11:43:44;1.00;;;0.75;;
45730;SDS011;31440;48.584;13.460;2022-09-17T11:46:15;0.52;;;0.52;;
45730;SDS011;31440;48.584;13.460;2022-09-17T11:48:46;3.90;;;0.95;;
45730;SDS011;31440;48.584;13.460;2022-09-17T11:51:20;0.93;;;0.80;;
45730;SDS011;31440;48.584;13.460;2022-09-17T11:56:52;1.48;;;0.70;;
45730;SDS011;31440;48.584;13.460;2022-09-17T11:59:30;0.85;;;0.75;;
45730;SDS011;31440;48.584;13.460;2022-09-17T12:07:38;2.95;;;0.98;;
45730;SDS011;31440;48.584;13.460;2022-09-17T12:12:58;2.30;;;0.80;;
45730;SDS011;31440;48.584;13.460;2022-09-17T12:15:56;2.63;;;1.55;;
45730;SDS011;31440;48.584;13.460;2022-09-17T12:21:14;3.10;;;1.10;;
45730;SDS011;31440;48.584;13.460;2022-09-17T12:24:06;1.27;;;1.00;;
45730;SDS011;31440;48.584;13.460;2022-09-17T12:27:03;2.33;;;1.30;;
45730;SDS011;31440;48.584;13.460;2022-09-17T12:43:58;1.58;;;1.20;;
45730;SDS011;31440;48.584;13.460;2022-09-17T12:54:53;2.42;;;1.30;;
45730;SDS011;31440;48.584;13.460;2022-09-17T13:00:12;2.17;;;1.63;;
45730;SDS011;31440;48.584;13.460;2022-09-17T13:02:44;1.50;;;1.40;;
45730;SDS011;31440;48.584;13.460;2022-09-17T13:05:20;2.35;;;1.90;;
45730;SDS011;31440;48.584;13.460;2022-09-17T13:07:52;4.30;;;1.40;;
45730;SDS011;31440;48.584;13.460;2022-09-17T13:16:12;2.28;;;1.55;;
45730;SDS011;31440;48.584;13.460;2022-09-17T13:21:15;5.80;;;1.75;;
45730;SDS011;31440;48.584;13.460;2022-09-17T13:23:46;7.82;;;1.92;;
45730;SDS011;31440;48.584;13.460;2022-09-17T13:26:14;5.97;;;1.50;;
45730;SDS011;31440;48.584;13.460;2022-09-17T13:28:44;6.55;;;2.03;;
45730;SDS011;31440;48.584;13.460;2022-09-17T13:31:11;14.80;;;2.35;;
45730;SDS011;31440;48.584;13.460;2022-09-17T13:33:48;5.18;;;1.75;;
45730;SDS011;31440;48.584;13.460;2022-09-17T13:39:07;4.20;;;1.98;;
45730;SDS011;31440;48.584;13.460;2022-09-17T13:41:35;3.28;;;1.90;;
45730;SDS011;31440;48.584;13.460;2022-09-17T13:44:04;7.30;;;2.88;;
45730;SDS011;31440;48.584;13.460;2022-09-17T13:46:31;6.82;;;2.45;;
45730;SDS011;31440;48.584;13.460;2022-09-17T13:48:59;2.35;;;1.80;;
45730;SDS011;31440;48.584;13.460;2022-09-17T13:53:55;5.13;;;2.00;;
45730;SDS011;31440;48.584;13.460;2022-09-17T13:56:30;4.63;;;1.92;;
45730;SDS011;31440;48.584;13.460;2022-09-17T13:59:05;2.13;;;1.70;;
45730;SDS011;31440;48.584;13.460;2022-09-17T14:09:50;3.78;;;2.08;;
45730;SDS011;31440;48.584;13.460;2022-09-17T14:21:14;6.97;;;2.03;;
45730;SDS011;31440;48.584;13.460;2022-09-17T14:23:58;3.35;;;1.85;;
45730;SDS011;31440;48.584;13.460;2022-09-17T14:26:41;4.05;;;1.80;;
45730;SDS011;31440;48.584;13.460;2022-09-17T14:32:05;3.85;;;1.55;;
45730;SDS011;31440;48.584;13.460;2022-09-17T14:34:32;10.98;;;2.45;;
45730;SDS011;31440;48.584;13.460;2022-09-17T14:36:57;9.57;;;2.35;;
45730;SDS011;31440;48.584;13.460;2022-09-17T14:39:26;2.03;;;1.25;;
45730;SDS011;31440;48.584;13.460;2022-09-17T14:42:01;5.15;;;2.00;;
45730;SDS011;31440;48.584;13.460;2022-09-17T14:44:31;7.75;;;1.73;;
45730;SDS011;31440;48.584;13.460;2022-09-17T14:47:02;10.32;;;2.30;;
45730;SDS011;31440;48.584;13.460;2022-09-17T14:49:33;8.85;;;2.20;;
45730;SDS011;31440;48.584;13.460;2022-09-17T14:52:00;7.00;;;2.42;;
45730;SDS011;31440;48.584;13.460;2022-09-17T14:57:01;6.60;;;1.88;;
45730;SDS011;31440;48.584;13.460;2022-09-17T15:05:00;8.20;;;1.77;;
45730;SDS011;31440;48.584;13.460;2022-09-17T15:07:28;4.03;;;1.40;;
45730;SDS011;31440;48.584;13.460;2022-09-17T15:10:04;9.10;;;2.13;;
45730;SDS011;31440;48.584;13.460;2022-09-17T15:12:30;5.00;;;1.40;;
45730;SDS011;31440;48.584;13.460;2022-09-17T15:14:56;5.65;;;1.88;;
45730;SDS011;31440;48.584;13.460;2022-09-17T15:17:22;5.78;;;2.50;;
45730;SDS011;31440;48.584;13.460;2022-09-17T15:19:49;4.43;;;1.67;;
45730;SDS011;31440;48.584;13.460;2022-09-17T15:22:22;5.10;;;1.60;;
45730;SDS011;31440;48.584;13.460;2022-09-17T15:25:01;5.13;;;1.90;;
45730;SDS011;31440;48.584;13.460;2022-09-17T15:27:36;8.20;;;2.25;;
45730;SDS011;31440;48.584;13.460;2022-09-17T15:30:05;3.33;;;1.80;;
45730;SDS011;31440;48.584;13.460;2022-09-17T15:32:33;5.57;;;1.60;;
45730;SDS011;31440;48.584;13.460;2022-09-17T15:37:41;5.43;;;1.60;;
45730;SDS011;31440;48.584;13.460;2022-09-17T15:43:26;2.80;;;1.77;;
45730;SDS011;31440;48.584;13.460;2022-09-17T15:45:54;2.88;;;2.00;;
45730;SDS011;31440;48.584;13.460;2022-09-17T15:50:59;4.97;;;1.77;;
45730;SDS011;31440;48.584;13.460;2022-09-17T15:53:26;4.70;;;1.70;;
45730;SDS011;31440;48.584;13.460;2022-09-17T15:55:57;8.25;;;1.95;;
45730;SDS011;31440;48.584;13.460;2022-09-17T15:58:28;4.22;;;1.48;;
45730;SDS011;31440;48.584;13.460;2022-09-17T16:08:45;5.82;;;2.08;;
45730;SDS011;31440;48.584;13.460;2022-09-17T16:11:15;4.30;;;1.30;;
45730;SDS011;31440;48.584;13.460;2022-09-17T16:13:41;7.18;;;1.92;;
45730;SDS011;31440;48.584;13.460;2022-09-17T16:16:28;5.05;;;1.35;;
45730;SDS011;31440;48.584;13.460;2022-09-17T16:19:00;6.60;;;1.50;;
45730;SDS011;31440;48.584;13.460;2022-09-17T16:21:26;8.00;;;2.30;;
45730;SDS011;31440;48.584;13.460;2022-09-17T16:23:54;4.10;;;1.60;;
45730;SDS011;31440;48.584;13.460;2022-09-17T16:26:24;5.57;;;2.25;;
45730;SDS011;31440;48.584;13.460;2022-09-17T16:28:55;3.72;;;1.75;;
45730;SDS011;31440;48.584;13.460;2022-09-17T16:31:25;2.45;;;1.55;;
45730;SDS011;31440;48.584;13.460;2022-09-17T16:33:52;5.22;;;1.42;;
45730;SDS011;31440;48.584;13.460;2022-09-17T16:36:19;1.85;;;1.40;;
45730;SDS011;31440;48.584;13.460;2022-09-17T16:38:45;0.93;;;0.88;;
45730;SDS011;31440;48.584;13.460;2022-09-17T16:41:10;3.47;;;1.30;;
45730;SDS011;31440;48.584;13.460;2022-09-17T16:43:36;2.78;;;1.38;;
45730;SDS011;31440;48.584;13.460;2022-09-17T16:46:05;2.97;;;1.20;;
45730;SDS011;31440;48.584;13.460;2022-09-17T16:48:32;2.63;;;1.20;;
45730;SDS011;31440;48.584;13.460;2022-09-17T16:50:58;4.18;;;1.58;;
45730;SDS011;31440;48.584;13.460;2022-09-17T16:53:25;1.67;;;1.25;;
45730;SDS011;31440;48.584;13.460;2022-09-17T16:55:51;1.40;;;1.23;;
45730;SDS011;31440;48.584;13.460;2022-09-17T16:58:17;3.92;;;1.25;;
45730;SDS011;31440;48.584;13.460;2022-09-17T17:00:42;1.25;;;1.00;;
45730;SDS011;31440;48.584;13.460;2022-09-17T17:03:12;3.08;;;1.40;;
45730;SDS011;31440;48.584;13.460;2022-09-17T17:05:39;4.70;;;1.65;;
45730;SDS011;31440;48.584;13.460;2022-09-17T17:08:05;1.20;;;0.90;;
45730;SDS011;31440;48.584;13.460;2022-09-17T17:10:32;3.08;;;1.60;;
45730;SDS011;31440;48.584;13.460;2022-09-17T17:12:57;2.63;;;1.25;;
45730;SDS011;31440;48.584;13.460;2022-09-17T17:15:23;1.75;;;1.23;;
45730;SDS011;31440;48.584;13.460;2022-09-17T17:17:49;2.15;;;1.30;;
45730;SDS011;31440;48.584;13.460;2022-09-17T17:20:14;1.75;;;1.17;;
45730;SDS011;31440;48.584;13.460;2022-09-17T17:22:41;2.42;;;1.10;;
45730;SDS011;31440;48.584;13.460;2022-09-17T17:25:11;2.38;;;1.10;;
45730;SDS011;31440;48.584;13.460;2022-09-17T17:27:38;2.00;;;0.90;;
45730;SDS011;31440;48.584;13.460;2022-09-17T17:30:05;1.08;;;0.98;;
45730;SDS011;31440;48.584;13.460;2022-09-17T17:32:35;0.77;;;0.70;;
45730;SDS011;31440;48.584;13.460;2022-09-17T17:35:01;1.77;;;0.90;;
45730;SDS011;31440;48.584;13.460;2022-09-17T17:37:28;1.20;;;0.88;;
45730;SDS011;31440;48.584;13.460;2022-09-17T17:39:53;2.50;;;0.82;;
45730;SDS011;31440;48.584;13.460;2022-09-17T17:42:19;3.90;;;0.93;;
45730;SDS011;31440;48.584;13.460;2022-09-17T17:44:45;0.95;;;0.95;;
45730;SDS011;31440;48.584;13.460;2022-09-17T17:47:12;0.68;;;0.68;;
45730;SDS011;31440;48.584;13.460;2022-09-17T17:49:37;0.68;;;0.68;;
45730;SDS011;31440;48.584;13.460;2022-09-17T17:52:03;0.60;;;0.60;;
45730;SDS011;31440;48.584;13.460;2022-09-17T17:54:29;1.83;;;1.10;;
45730;SDS011;31440;48.584;13.460;2022-09-17T17:56:55;1.20;;;0.70;;
45730;SDS011;31440;48.584;13.460;2022-09-17T17:59:21;1.45;;;0.90;;
45730;SDS011;31440;48.584;13.460;2022-09-17T18:01:46;2.03;;;0.70;;
45730;SDS011;31440;48.584;13.460;2022-09-17T18:04:12;1.55;;;1.00;;
45730;SDS011;31440;48.584;13.460;2022-09-17T18:06:38;1.10;;;1.00;;